aviador You're here:

YPAD Decoded Metar

ADELAIDE in AUSTRALIA
Report Time2017-03-30 18:00:00
UTC Time2017-03-30 18:35:23
Flight Rules vfr VFR
Wind080° at 02 kt
W.Decomp.*RWY 05: 1.9 kt HW 0.7 kt RCW
RWY 12: 1.3 kt HW 1.5 kt LCW
W.Rank080° ranks 36
Current wind is below 080° avg. (5.3)
Visibility9999 m
Phenomena:N/A
Clouds:Few 046 Hf
Expected CloudBase > 800 ft AGL from Temp-Dew spread
CeilingNone
Temp09°C (ISA -6)
Dew Point07°C (87% RH)
AAT7.6°C
QNH1023 hPa
Density Alt-906 ft
Elevation13 ft
Report Wrong Elevation
Raw Report
METAR YPAD 301800Z 08002KT 9999 FEW046 09/07 Q1023
NOSIG=

Extra information for YPAD:More info

Metar Taf Metar & Taf Last 4 Metars F.Rules Stats Wind Profile Meteogram Temp Stats Airport Information Weather charts Add Link Nearby VenuesMetar ALERT Operation Metar Decoded Social comments

Adelaide Airport Webcam